»·PEaware :: N4VY KTUS-KDUG

N4VY :: KTUS-KDUG

FLIGHT INFORMATION

Flight Status: Arrived
Operator: Privately registered:
United States
More flights under this callsign
Pilot: Jeremy H. (30118)
Aircraft: CESSNA 172 SKYHAWK
(C172)
More flights by this aircraft type
Origin: KTUS Tucson Intl
United States
Destination: KDUG Bisbee Douglas Intl
United States
More flights between these airports :: More routes between these airports
Route: +V66 DUG
File this flight plan on PilotEdge
Remarks:
Altitude:
(Current/Filed)
10,000ft
Speed:
(Current/Filed)
110kts
Departed: 12-Oct-20 03:02 PM
Arrived: 12-Oct-20 03:59 PM
Distance/Time
Traveled:
79nm/0:56
Distance/Time
To Go:
Arrived

Flight Plot

Page will automatically refresh every two minutes.

Flight plan parsing failed; only flown route is shown


Map Options




Map Legend


Flown Route
Filed Route
Departure Airport
Arrival Airport
Navaid (VOR, NDB)
Fix

Horizontal Profiles

Position Reports

Time Latitude Longitude Heading Altitude Ground
Speed
12-Oct-20 14:47 32.122954 -110.942563 223 2585ft 0kts
12-Oct-20 14:48 32.122954 -110.942563 223 2585ft 0kts
12-Oct-20 14:49 32.122954 -110.942563 223 2585ft 0kts
12-Oct-20 14:50 32.122954 -110.942563 223 2585ft 0kts
12-Oct-20 14:51 32.122954 -110.942563 223 2585ft 0kts
12-Oct-20 14:52 32.122954 -110.942563 223 2585ft 0kts
12-Oct-20 14:53 32.122954 -110.942563 223 2585ft 0kts
12-Oct-20 14:54 32.122954 -110.942563 223 2585ft 0kts
12-Oct-20 14:55 32.122954 -110.942563 223 2585ft 0kts
12-Oct-20 14:56 32.122954 -110.942563 223 2585ft 0kts
12-Oct-20 14:57 32.122954 -110.942563 223 2585ft 0kts
12-Oct-20 14:58 32.122954 -110.942563 223 2585ft 0kts
12-Oct-20 14:59 32.123578 -110.945579 311 2578ft 19kts
12-Oct-20 15:00 32.121116 -110.942679 132 2588ft 39kts
12-Oct-20 15:01 32.111510 -110.931489 136 2622ft 55kts
12-Oct-20 15:02 32.102960 -110.922509 229 2650ft 14kts
12-Oct-20 15:03 32.102919 -110.922562 226 2650ft 0kts
12-Oct-20 15:04 32.112214 -110.932693 329 2933ft 79kts
12-Oct-20 15:05 32.129317 -110.943788 330 3786ft 68kts
12-Oct-20 15:06 32.146504 -110.954428 330 4492ft 71kts
12-Oct-20 15:07 32.163961 -110.964800 330 5192ft 68kts
12-Oct-20 15:08 32.182546 -110.975606 330 5740ft 83kts
12-Oct-20 15:09 32.202272 -110.986944 330 6366ft 82kts
12-Oct-20 15:10 32.214150 -110.968867 99 6925ft 92kts
12-Oct-20 15:11 32.210809 -110.942619 99 7548ft 82kts
12-Oct-20 15:12 32.207429 -110.915448 99 8052ft 85kts
12-Oct-20 15:13 32.204098 -110.887828 99 8551ft 84kts
12-Oct-20 15:14 32.193402 -110.867775 172 9039ft 75kts
12-Oct-20 15:15 32.171966 -110.862922 172 9449ft 80kts
12-Oct-20 15:16 32.149446 -110.858013 172 9854ft 83kts
12-Oct-20 15:17 32.124798 -110.862240 168 9995ft 109kts
12-Oct-20 15:18 32.095711 -110.844125 153 9996ft 122kts
12-Oct-20 15:19 32.065745 -110.823883 145 9998ft 125kts
12-Oct-20 15:20 32.041490 -110.794249 123 9998ft 127kts
12-Oct-20 15:21 32.023490 -110.757958 123 9998ft 128kts
12-Oct-20 15:22 32.005719 -110.721426 121 9996ft 128kts
12-Oct-20 15:23 31.988348 -110.684712 121 10001ft 129kts
12-Oct-20 15:24 31.970926 -110.648087 121 10014ft 127kts
12-Oct-20 15:25 31.953738 -110.612331 121 10038ft 122kts
12-Oct-20 15:26 31.934557 -110.580434 154 10038ft 119kts
12-Oct-20 15:27 31.923729 -110.549423 114 10047ft 120kts
12-Oct-20 15:28 31.908134 -110.514547 120 10065ft 121kts
12-Oct-20 15:29 31.891798 -110.479902 121 10081ft 121kts
12-Oct-20 15:30 31.875146 -110.445056 121 10091ft 122kts
12-Oct-20 15:31 31.856546 -110.411728 128 10097ft 122kts
12-Oct-20 15:32 31.837509 -110.378290 124 10098ft 122kts
12-Oct-20 15:33 31.819861 -110.343713 122 10086ft 124kts
12-Oct-20 15:34 31.802595 -110.307918 121 10005ft 125kts
12-Oct-20 15:35 31.786184 -110.272256 120 10005ft 123kts
12-Oct-20 15:36 31.770434 -110.236548 119 10006ft 123kts
12-Oct-20 15:37 31.754932 -110.200510 121 10005ft 123kts
12-Oct-20 15:38 31.738695 -110.165116 120 10006ft 123kts
12-Oct-20 15:39 31.722695 -110.129565 120 10005ft 123kts
12-Oct-20 15:40 31.706649 -110.093906 120 10005ft 123kts
12-Oct-20 15:41 31.690631 -110.058277 119 10005ft 123kts
12-Oct-20 15:42 31.677104 -110.021422 99 9939ft 130kts
12-Oct-20 15:43 31.674775 -109.976616 94 9610ft 136kts
12-Oct-20 15:44 31.673035 -109.932769 94 9520ft 132kts
12-Oct-20 15:45 31.671342 -109.890472 94 9511ft 128kts
12-Oct-20 15:46 31.669694 -109.848874 94 9511ft 127kts
12-Oct-20 15:47 31.668022 -109.806286 95 9254ft 141kts
12-Oct-20 15:48 31.666005 -109.759219 94 8659ft 145kts
12-Oct-20 15:49 31.663980 -109.712049 94 6988ft 135kts
12-Oct-20 15:51 31.662224 -109.669159 94 6718ft 132kts
12-Oct-20 15:52 31.652833 -109.630346 147 6714ft 127kts
12-Oct-20 15:53 31.619068 -109.618554 168 6716ft 127kts
12-Oct-20 15:54 31.583553 -109.611035 169 6274ft 125kts
12-Oct-20 15:55 31.552339 -109.605190 175 5668ft 100kts
12-Oct-20 15:56 31.526736 -109.604684 178 5194ft 89kts
12-Oct-20 15:57 31.503454 -109.604598 177 4746ft 71kts
12-Oct-20 15:58 31.483053 -109.604512 177 4355ft 77kts
12-Oct-20 15:59 31.465720 -109.604467 175 4114ft 34kts
12-Oct-20 16:00 31.463616 -109.601752 92 4111ft 31kts
12-Oct-20 16:01 31.463621 -109.603687 269 4109ft 0kts
12-Oct-20 16:02 31.463621 -109.603687 269 4109ft 0kts
12-Oct-20 16:03 31.463621 -109.603687 269 4109ft 0kts

Navigation Log

Ident Type
Flight plan parsing failed, navigation log unavailable